createdAt,value
2022-12-15T00:01:30.051Z,12.85
2022-12-15T00:04:16.836Z,9.38
2022-12-15T00:07:03.760Z,14.82
2022-12-15T00:09:50.588Z,10.38
2022-12-15T00:12:38.929Z,11.43
2022-12-15T00:15:25.950Z,11.00
2022-12-15T00:18:12.849Z,12.60
2022-12-15T00:20:59.994Z,14.57
2022-12-15T00:23:46.583Z,12.40
2022-12-15T00:26:33.241Z,11.15
2022-12-15T00:29:21.534Z,10.45
2022-12-15T00:32:08.389Z,7.90
2022-12-15T00:34:55.081Z,12.27
2022-12-15T00:37:42.102Z,9.27
2022-12-15T00:40:12.287Z,11.00
2022-12-15T00:42:41.913Z,12.48
2022-12-15T00:45:13.057Z,11.27
2022-12-15T00:47:41.333Z,13.77
2022-12-15T00:50:28.828Z,9.68
2022-12-15T00:53:15.369Z,9.07
2022-12-15T00:56:02.269Z,14.68
2022-12-15T00:58:49.211Z,10.80
2022-12-15T01:01:37.795Z,10.88
2022-12-15T01:04:24.488Z,13.52
2022-12-15T01:07:11.169Z,9.73
2022-12-15T01:09:58.070Z,12.68
2022-12-15T01:12:45.402Z,10.90
2022-12-15T01:15:32.222Z,11.02
2022-12-15T01:18:20.546Z,13.25
2022-12-15T01:20:56.792Z,12.07
2022-12-15T01:23:26.437Z,10.50
2022-12-15T01:25:56.401Z,15.27
2022-12-15T01:28:25.932Z,10.57
2022-12-15T01:30:55.691Z,8.30
2022-12-15T01:33:29.479Z,12.15
2022-12-15T01:36:00.936Z,10.23
2022-12-15T01:38:30.761Z,14.10
2022-12-15T01:41:01.898Z,11.95
2022-12-15T01:43:32.780Z,16.63
2022-12-15T01:46:05.032Z,16.10
2022-12-15T01:48:40.735Z,11.85
2022-12-15T01:51:16.046Z,13.20
2022-12-15T01:53:50.111Z,13.85
2022-12-15T01:56:20.606Z,10.57
2022-12-15T01:58:51.604Z,13.05
2022-12-15T02:01:21.079Z,14.35
2022-12-15T02:03:51.723Z,14.85
2022-12-15T02:06:22.956Z,16.03
2022-12-15T02:08:54.616Z,15.82
2022-12-15T02:11:38.185Z,14.55
2022-12-15T02:14:08.872Z,11.15
2022-12-15T02:16:48.093Z,13.30
2022-12-15T02:19:25.836Z,12.90
2022-12-15T02:22:01.528Z,13.20
2022-12-15T02:24:40.574Z,14.18
2022-12-15T02:27:25.406Z,9.55
2022-12-15T02:30:18.725Z,14.48
2022-12-15T02:32:55.341Z,11.95
2022-12-15T02:35:28.477Z,12.25
2022-12-15T02:37:57.488Z,23.55
2022-12-15T02:40:26.751Z,12.15
2022-12-15T02:42:57.911Z,13.88
2022-12-15T02:45:31.687Z,12.88
2022-12-15T02:48:05.930Z,8.63
2022-12-15T02:50:42.252Z,9.27
2022-12-15T02:53:19.623Z,11.68
2022-12-15T02:55:52.696Z,8.57
2022-12-15T02:58:28.029Z,9.38
2022-12-15T03:01:03.497Z,10.52
2022-12-15T03:03:36.756Z,10.82
2022-12-15T03:06:06.049Z,13.25
2022-12-15T03:08:35.005Z,12.55
2022-12-15T03:11:04.215Z,9.57
2022-12-15T03:13:33.511Z,11.90
2022-12-15T03:16:03.057Z,8.55
2022-12-15T03:18:32.101Z,8.38
2022-12-15T03:21:02.509Z,10.05
2022-12-15T03:23:31.896Z,9.00
2022-12-15T03:26:01.043Z,13.70
2022-12-15T03:28:30.159Z,11.98
2022-12-15T03:30:59.166Z,12.18
2022-12-15T03:33:28.734Z,9.35
2022-12-15T03:35:58.047Z,13.73
2022-12-15T03:38:28.532Z,13.95
2022-12-15T03:40:57.467Z,11.55
2022-12-15T03:43:26.702Z,12.70
2022-12-15T03:45:55.844Z,10.40
2022-12-15T03:48:24.865Z,10.65
2022-12-15T03:50:53.965Z,18.00
2022-12-15T03:53:22.959Z,14.10
2022-12-15T03:55:53.547Z,13.30
2022-12-15T03:58:22.871Z,10.47
2022-12-15T04:00:51.900Z,9.82
2022-12-15T04:03:21.785Z,12.05
2022-12-15T04:05:51.097Z,9.02
2022-12-15T04:08:26.688Z,10.90
2022-12-15T04:10:57.386Z,12.07
2022-12-15T04:13:26.362Z,13.80
2022-12-15T04:15:55.424Z,11.02
2022-12-15T04:18:24.422Z,13.15
2022-12-15T04:20:52.458Z,8.60
2022-12-15T04:23:21.689Z,8.25
2022-12-15T04:26:08.817Z,8.77
2022-12-15T04:28:56.978Z,7.80
2022-12-15T04:31:45.251Z,13.90
2022-12-15T04:34:32.872Z,12.02
2022-12-15T04:37:19.941Z,11.32
2022-12-15T04:40:09.947Z,7.63
2022-12-15T04:42:59.156Z,10.00
2022-12-15T04:45:47.374Z,9.60
2022-12-15T04:48:34.431Z,7.97
2022-12-15T04:51:23.749Z,13.65
2022-12-15T04:54:10.834Z,12.13
2022-12-15T04:56:57.728Z,7.10
2022-12-15T04:59:44.455Z,7.47
2022-12-15T05:02:32.460Z,9.48
2022-12-15T05:05:19.023Z,8.73
2022-12-15T05:08:05.704Z,7.03
2022-12-15T05:10:52.596Z,8.27
2022-12-15T05:13:39.143Z,6.22
2022-12-15T05:16:25.820Z,8.40
2022-12-15T05:19:13.850Z,9.32
2022-12-15T05:22:00.298Z,9.75
2022-12-15T05:24:46.682Z,9.23
2022-12-15T05:27:33.129Z,12.02
2022-12-15T05:30:20.150Z,11.75
2022-12-15T05:32:49.926Z,10.45
2022-12-15T05:35:20.667Z,9.77
2022-12-15T05:37:49.638Z,6.68
2022-12-15T05:40:18.657Z,7.90
2022-12-15T05:42:50.059Z,8.27
2022-12-15T05:45:19.511Z,11.82
2022-12-15T05:47:52.172Z,10.40
2022-12-15T05:50:23.038Z,9.27
2022-12-15T05:52:52.130Z,8.25
2022-12-15T05:55:21.253Z,8.95
2022-12-15T05:57:53.013Z,11.63
2022-12-15T06:00:22.353Z,11.68
2022-12-15T06:02:51.528Z,6.70
2022-12-15T06:05:22.228Z,8.82
2022-12-15T06:07:51.475Z,9.40
2022-12-15T06:10:21.180Z,8.02
2022-12-15T06:12:54.221Z,9.60
2022-12-15T06:15:23.616Z,8.90
2022-12-15T06:17:55.034Z,7.68
2022-12-15T06:20:25.619Z,15.85
2022-12-15T06:22:56.239Z,9.32
2022-12-15T06:25:25.371Z,9.30
2022-12-15T06:27:58.440Z,10.95
2022-12-15T06:30:30.796Z,9.73
2022-12-15T06:32:59.788Z,12.15
2022-12-15T06:35:30.229Z,9.02
2022-12-15T06:37:59.449Z,11.07
2022-12-15T06:40:31.003Z,12.40
2022-12-15T06:43:02.691Z,10.45
2022-12-15T06:45:31.967Z,10.25
2022-12-15T06:48:02.524Z,9.35
2022-12-15T06:50:37.804Z,10.43
2022-12-15T06:53:07.277Z,10.75
2022-12-15T06:55:37.300Z,8.88
2022-12-15T06:58:06.675Z,13.35
2022-12-15T07:00:36.775Z,9.75
2022-12-15T07:03:10.427Z,12.60
2022-12-15T07:05:42.362Z,14.52
2022-12-15T07:08:12.988Z,14.88
2022-12-15T07:10:44.149Z,12.37
2022-12-15T07:13:18.561Z,11.20
2022-12-15T07:15:50.071Z,8.48
2022-12-15T07:18:22.124Z,14.43
2022-12-15T07:20:52.924Z,12.63
2022-12-15T07:23:39.720Z,8.50
2022-12-15T07:26:12.196Z,11.80
2022-12-15T07:28:42.911Z,11.60
2022-12-15T07:31:12.766Z,9.15
2022-12-15T07:33:42.052Z,9.20
2022-12-15T07:36:13.284Z,9.35
2022-12-15T07:41:11.867Z,10.57
2022-12-15T07:43:41.829Z,12.60
2022-12-15T07:46:11.646Z,10.88
2022-12-15T07:48:41.173Z,8.23
2022-12-15T07:51:19.681Z,15.95
2022-12-15T07:53:51.495Z,12.05
2022-12-15T07:56:21.334Z,11.35
2022-12-15T07:58:51.491Z,13.30
2022-12-15T08:01:21.169Z,10.48
2022-12-15T08:03:50.644Z,13.60
2022-12-15T08:06:21.524Z,11.38
2022-12-15T08:08:51.443Z,10.88
2022-12-15T08:11:21.937Z,9.93
2022-12-15T08:16:40.792Z,13.85
2022-12-15T08:19:12.883Z,10.85
2022-12-15T08:21:45.466Z,11.85
2022-12-15T08:24:16.233Z,11.95
2022-12-15T08:26:51.186Z,15.18
2022-12-15T08:32:11.224Z,12.23
2022-12-15T08:34:42.859Z,14.20
2022-12-15T08:37:27.103Z,18.13
2022-12-15T08:39:57.957Z,10.73
2022-12-15T08:42:27.749Z,13.43
2022-12-15T08:44:57.145Z,11.02
2022-12-15T08:47:27.321Z,9.23
2022-12-15T08:49:56.547Z,10.43
2022-12-15T08:52:26.165Z,18.98
2022-12-15T08:54:55.733Z,13.15
2022-12-15T08:57:29.090Z,12.32
2022-12-15T08:59:58.597Z,14.63
2022-12-15T09:02:28.141Z,13.13
2022-12-15T09:05:00.267Z,13.85
2022-12-15T09:07:30.043Z,11.63
2022-12-15T09:10:01.115Z,15.40
2022-12-15T09:12:32.322Z,14.45
2022-12-15T09:15:01.836Z,21.58
2022-12-15T09:17:31.342Z,13.07
2022-12-15T09:20:00.730Z,13.90
2022-12-15T09:22:30.034Z,12.18
2022-12-15T09:24:59.269Z,13.70
2022-12-15T09:27:29.275Z,12.10
2022-12-15T09:30:00.247Z,14.18
2022-12-15T09:32:30.637Z,12.32
2022-12-15T09:35:00.753Z,15.17
2022-12-15T09:37:32.936Z,15.05
2022-12-15T09:40:04.088Z,15.27
2022-12-15T09:42:33.726Z,13.13
2022-12-15T09:45:10.556Z,13.50
2022-12-15T09:47:46.322Z,15.52
2022-12-15T09:50:19.088Z,12.38
2022-12-15T09:52:51.146Z,12.55
2022-12-15T09:55:23.224Z,20.25
2022-12-15T09:57:55.585Z,15.50
2022-12-15T10:00:27.429Z,18.35
2022-12-15T10:03:07.213Z,14.07
2022-12-15T10:06:06.214Z,20.02
2022-12-15T10:08:34.857Z,13.95
2022-12-15T10:13:37.831Z,17.55
2022-12-15T10:16:18.199Z,22.35
2022-12-15T10:18:59.260Z,18.10
2022-12-15T10:21:31.667Z,21.17
2022-12-15T10:24:03.572Z,29.83
2022-12-15T10:26:34.138Z,20.08
2022-12-15T10:29:19.213Z,24.52
2022-12-15T10:31:53.804Z,17.38
2022-12-15T10:34:27.737Z,21.23
2022-12-15T10:36:58.382Z,15.25
2022-12-15T10:39:39.377Z,14.40
2022-12-15T10:42:14.129Z,15.57
2022-12-15T10:44:45.121Z,13.75
2022-12-15T10:47:27.198Z,19.55
2022-12-15T10:49:56.841Z,16.50
2022-12-15T10:52:28.750Z,15.35
2022-12-15T10:55:01.040Z,17.02
2022-12-15T10:57:31.848Z,12.05
2022-12-15T11:00:25.064Z,13.50
2022-12-15T11:02:55.849Z,15.50
2022-12-15T11:05:25.590Z,11.70
2022-12-15T11:07:55.963Z,11.60
2022-12-15T11:10:27.463Z,15.18
2022-12-15T11:12:58.722Z,16.08
2022-12-15T11:15:43.374Z,13.45
2022-12-15T11:18:37.428Z,12.57
2022-12-15T11:21:09.913Z,15.38
2022-12-15T11:23:48.734Z,16.88
2022-12-15T11:26:26.063Z,17.35
2022-12-15T11:28:58.365Z,15.52
2022-12-15T11:31:33.643Z,16.52
2022-12-15T11:34:04.927Z,17.38
2022-12-15T11:36:55.336Z,20.13
2022-12-15T11:39:32.439Z,22.80
2022-12-15T11:42:07.248Z,24.30
2022-12-15T11:44:42.054Z,20.67
2022-12-15T11:47:20.020Z,21.38
2022-12-15T11:50:08.407Z,22.38
2022-12-15T11:52:56.742Z,22.27
2022-12-15T11:55:37.573Z,20.08
2022-12-15T11:58:26.205Z,19.42
2022-12-15T12:01:02.852Z,18.42
2022-12-15T12:03:37.010Z,18.45
2022-12-15T12:06:10.731Z,15.40
2022-12-15T12:08:58.435Z,15.85
2022-12-15T12:11:30.781Z,9.80
2022-12-15T12:14:11.909Z,14.65
2022-12-15T12:16:47.045Z,13.43
2022-12-15T12:19:20.116Z,12.02
2022-12-15T12:21:51.102Z,14.70
2022-12-15T12:24:22.383Z,13.00
2022-12-15T12:26:56.117Z,12.93
2022-12-15T12:29:30.391Z,14.73
2022-12-15T12:32:05.398Z,14.73
2022-12-15T12:34:39.973Z,12.25
2022-12-15T12:37:15.526Z,13.77
2022-12-15T12:39:44.842Z,16.90
2022-12-15T12:42:17.887Z,17.20
2022-12-15T12:44:47.352Z,17.98
2022-12-15T12:47:22.927Z,15.10
2022-12-15T12:49:54.412Z,13.35
2022-12-15T12:52:25.779Z,14.85
2022-12-15T12:55:01.361Z,14.10
2022-12-15T12:57:36.442Z,15.15
2022-12-15T13:00:15.066Z,19.50
2022-12-15T13:02:50.395Z,15.95
2022-12-15T13:05:31.607Z,13.65
2022-12-15T13:08:18.534Z,12.90
2022-12-15T13:13:48.555Z,15.18
2022-12-15T13:16:22.578Z,14.18
2022-12-15T13:18:59.395Z,10.18
2022-12-15T13:21:50.638Z,11.13
2022-12-15T13:24:24.508Z,11.75
2022-12-15T13:26:54.124Z,12.57
2022-12-15T13:29:24.939Z,11.50
2022-12-15T13:31:54.167Z,10.50
2022-12-15T13:34:24.800Z,14.10
2022-12-15T13:36:56.002Z,17.73
2022-12-15T13:39:58.748Z,12.27
2022-12-15T13:45:48.831Z,12.65
2022-12-15T13:48:46.624Z,7.70
2022-12-15T13:51:26.371Z,10.75
2022-12-15T13:53:57.584Z,8.07
2022-12-15T13:56:50.674Z,10.63
2022-12-15T13:59:38.360Z,9.77
2022-12-15T14:02:24.637Z,7.78
2022-12-15T14:05:14.849Z,9.48
2022-12-15T14:07:54.155Z,16.40
2022-12-15T14:10:25.808Z,8.18
2022-12-15T14:12:58.134Z,8.40
2022-12-15T14:15:31.157Z,11.30
2022-12-15T14:18:02.480Z,10.48
2022-12-15T14:20:41.491Z,9.93
2022-12-15T14:23:21.786Z,9.60
2022-12-15T14:25:55.721Z,13.40
2022-12-15T14:28:30.581Z,10.48
2022-12-15T14:31:02.469Z,10.00
2022-12-15T14:33:34.061Z,12.18
2022-12-15T14:36:08.312Z,10.60
2022-12-15T14:38:47.929Z,9.60
2022-12-15T14:41:23.179Z,11.88
2022-12-15T14:44:37.422Z,10.60
2022-12-15T14:46:49.797Z,8.10
2022-12-15T14:49:21.921Z,8.70
2022-12-15T14:51:54.905Z,9.52
2022-12-15T14:54:35.949Z,7.88
2022-12-15T14:57:14.764Z,9.77
2022-12-15T15:03:05.151Z,12.95
2022-12-15T15:03:15.529Z,10.45
2022-12-15T15:03:57.243Z,9.43
2022-12-15T15:06:44.407Z,8.32
2022-12-15T15:09:50.627Z,6.97
2022-12-15T15:12:25.540Z,9.63
2022-12-15T15:14:56.486Z,5.15
2022-12-15T15:17:27.666Z,8.38
2022-12-15T15:19:59.056Z,7.38
2022-12-15T15:22:46.354Z,5.72
2022-12-15T15:25:29.105Z,9.10
2022-12-15T15:28:14.074Z,5.90
2022-12-15T15:30:48.058Z,9.82
2022-12-15T15:33:18.079Z,12.27
2022-12-15T15:35:51.218Z,8.65
2022-12-15T15:38:25.014Z,7.53
2022-12-15T15:40:54.930Z,10.77
2022-12-15T15:43:25.856Z,8.70
2022-12-15T15:45:57.917Z,5.43
2022-12-15T15:48:29.335Z,9.35
2022-12-15T15:53:27.912Z,14.60
2022-12-15T15:55:57.275Z,12.90
2022-12-15T15:58:30.694Z,11.60
2022-12-15T16:01:00.335Z,11.23
2022-12-15T16:03:29.849Z,14.75
2022-12-15T16:05:59.592Z,8.63
2022-12-15T16:08:34.092Z,9.50
2022-12-15T16:11:04.374Z,9.73
2022-12-15T16:13:34.943Z,11.43
2022-12-15T16:16:04.392Z,8.40
2022-12-15T16:18:35.514Z,10.65
2022-12-15T16:21:04.925Z,12.65
2022-12-15T16:23:34.223Z,11.45
2022-12-15T16:26:03.488Z,11.48
2022-12-15T16:28:33.424Z,10.88
2022-12-15T16:31:04.127Z,8.93
2022-12-15T16:33:33.478Z,10.13
2022-12-15T16:36:02.527Z,10.68
2022-12-15T16:38:32.951Z,16.50
2022-12-15T16:41:06.817Z,10.10
2022-12-15T16:43:41.552Z,11.77
2022-12-15T16:46:17.130Z,8.98
2022-12-15T16:48:46.491Z,14.43
2022-12-15T16:51:26.504Z,12.68
2022-12-15T16:53:55.682Z,14.60
2022-12-15T16:56:25.137Z,13.57
2022-12-15T16:59:15.518Z,20.23
2022-12-15T17:01:45.310Z,23.60
2022-12-15T17:04:17.169Z,11.57
2022-12-15T17:06:47.269Z,17.85
2022-12-15T17:09:21.075Z,20.45
2022-12-15T17:11:50.812Z,22.50
2022-12-15T17:14:19.962Z,19.17
2022-12-15T17:16:50.821Z,18.45
2022-12-15T17:19:21.516Z,19.38
2022-12-15T17:21:52.966Z,19.00
2022-12-15T17:24:22.753Z,27.80
2022-12-15T17:26:52.994Z,41.73
2022-12-15T17:29:23.215Z,49.95
2022-12-15T17:31:54.130Z,60.47
2022-12-15T17:34:31.144Z,57.63
2022-12-15T17:37:00.927Z,90.25
2022-12-15T17:39:30.839Z,55.22
2022-12-15T17:42:02.126Z,77.15
2022-12-15T17:44:36.153Z,67.85
2022-12-15T17:47:09.383Z,60.72
2022-12-15T17:49:39.312Z,40.38
2022-12-15T17:52:25.677Z,33.63
2022-12-15T17:54:55.633Z,29.13
2022-12-15T17:57:25.817Z,22.35
2022-12-15T17:59:55.741Z,28.63
2022-12-15T18:02:27.329Z,30.58
2022-12-15T18:04:56.949Z,28.02
2022-12-15T18:07:26.892Z,28.42
2022-12-15T18:09:56.296Z,34.78
2022-12-15T18:12:27.030Z,28.42
2022-12-15T18:14:56.825Z,26.33
2022-12-15T18:17:27.882Z,27.63
2022-12-15T18:19:57.194Z,26.80
2022-12-15T18:22:26.477Z,23.88
2022-12-15T18:24:56.206Z,27.55
2022-12-15T18:27:26.706Z,24.95
2022-12-15T18:29:56.483Z,22.38
2022-12-15T18:32:29.825Z,22.02
2022-12-15T18:34:59.093Z,21.33
2022-12-15T18:37:28.317Z,23.05
2022-12-15T18:40:04.145Z,22.35
2022-12-15T18:42:34.705Z,26.10
2022-12-15T18:45:05.140Z,22.95
2022-12-15T18:47:35.843Z,27.10
2022-12-15T18:50:05.056Z,26.70
2022-12-15T18:52:35.084Z,24.90
2022-12-15T18:55:04.458Z,19.05
2022-12-15T18:57:35.823Z,26.20
2022-12-15T19:05:25.606Z,18.33
2022-12-15T19:07:55.596Z,22.13
2022-12-15T19:10:25.191Z,21.52
2022-12-15T19:12:58.581Z,23.25
2022-12-15T19:15:28.111Z,20.25
2022-12-15T19:18:14.907Z,23.60
2022-12-15T19:21:03.598Z,27.38
2022-12-15T19:23:33.243Z,21.27
2022-12-15T19:26:02.801Z,21.88
2022-12-15T19:28:33.404Z,18.95
2022-12-15T19:31:02.927Z,25.87
2022-12-15T19:33:32.452Z,24.13
2022-12-15T19:36:03.565Z,23.67
2022-12-15T19:38:34.202Z,20.48
2022-12-15T19:41:03.309Z,19.47
2022-12-15T19:43:33.108Z,15.15
2022-12-15T19:46:02.443Z,18.02
2022-12-15T19:48:31.784Z,22.40
2022-12-15T19:51:01.322Z,15.80
2022-12-15T19:53:32.935Z,19.50
2022-12-15T19:56:02.412Z,19.88
2022-12-15T19:58:32.842Z,19.65
2022-12-15T20:01:03.029Z,19.80
2022-12-15T20:03:33.047Z,18.73
2022-12-15T20:06:03.498Z,19.17
2022-12-15T20:08:37.280Z,22.30
2022-12-15T20:11:07.008Z,21.23
2022-12-15T20:13:36.470Z,17.83
2022-12-15T20:16:06.251Z,17.98
2022-12-15T20:18:35.809Z,18.55
2022-12-15T20:21:05.355Z,18.77
2022-12-15T20:23:36.560Z,22.67
2022-12-15T20:26:07.619Z,21.85
2022-12-15T20:28:36.809Z,21.20
2022-12-15T20:31:06.210Z,24.40
2022-12-15T20:33:35.678Z,28.15
2022-12-15T20:36:05.340Z,52.65
2022-12-15T20:38:36.152Z,62.45
2022-12-15T20:41:05.671Z,42.60
2022-12-15T20:43:35.957Z,32.20
2022-12-15T20:46:07.095Z,23.80
2022-12-15T20:48:37.818Z,19.80
2022-12-15T20:51:10.077Z,19.90
2022-12-15T20:53:41.280Z,15.93
2022-12-15T20:56:11.316Z,17.13
2022-12-15T20:58:40.642Z,17.60
2022-12-15T21:01:17.915Z,17.17
2022-12-15T21:03:47.603Z,19.40
2022-12-15T21:06:16.887Z,27.42
2022-12-15T21:08:47.782Z,28.65
2022-12-15T21:11:18.536Z,20.67
2022-12-15T21:13:49.218Z,18.10
2022-12-15T21:16:20.206Z,15.50
2022-12-15T21:19:18.722Z,21.67
2022-12-15T21:21:39.839Z,21.25
2022-12-15T21:24:16.298Z,21.25
2022-12-15T21:26:45.827Z,20.98
2022-12-15T21:29:16.147Z,18.80
2022-12-15T21:31:45.755Z,23.58
2022-12-15T21:34:15.383Z,17.55
2022-12-15T21:36:45.624Z,16.92
2022-12-15T21:39:23.432Z,22.23
2022-12-15T21:41:52.607Z,18.58
2022-12-15T21:44:24.748Z,22.63
2022-12-15T21:46:54.768Z,24.10
2022-12-15T21:49:23.389Z,22.48
2022-12-15T21:51:53.364Z,20.75
2022-12-15T21:57:01.055Z,17.55
2022-12-15T21:59:30.906Z,16.83
2022-12-15T22:02:01.744Z,18.48
2022-12-15T22:04:32.350Z,18.52
2022-12-15T22:07:01.605Z,16.17
2022-12-15T22:09:30.875Z,17.25
2022-12-15T22:12:02.028Z,23.42
2022-12-15T22:14:33.542Z,18.83
2022-12-15T22:17:03.294Z,19.75
2022-12-15T22:19:32.403Z,22.95
2022-12-15T22:22:01.663Z,21.20
2022-12-15T22:24:31.156Z,19.00
2022-12-15T22:27:01.711Z,23.00
2022-12-15T22:29:31.733Z,33.00
2022-12-15T22:32:00.922Z,20.38
2022-12-15T22:34:30.184Z,22.83
2022-12-15T22:37:01.682Z,25.00
2022-12-15T22:42:01.977Z,20.50
2022-12-15T22:44:36.347Z,23.90
2022-12-15T22:47:06.495Z,18.90
2022-12-15T22:49:37.836Z,21.70
2022-12-15T22:52:15.111Z,24.85
2022-12-15T22:54:45.924Z,20.27
2022-12-15T22:57:22.014Z,22.35
2022-12-15T22:59:53.107Z,20.30
2022-12-15T23:02:24.202Z,23.98
2022-12-15T23:04:53.325Z,19.52
2022-12-15T23:07:24.028Z,19.77
2022-12-15T23:10:13.407Z,18.95
2022-12-15T23:12:43.047Z,17.73
2022-12-15T23:15:30.317Z,19.02
2022-12-15T23:17:59.724Z,20.85
2022-12-15T23:20:29.602Z,23.48
2022-12-15T23:22:58.796Z,18.73
2022-12-15T23:25:32.860Z,17.25
2022-12-15T23:28:03.552Z,18.95
2022-12-15T23:30:32.817Z,18.40
2022-12-15T23:33:02.651Z,19.27
2022-12-15T23:35:31.972Z,20.92
2022-12-15T23:38:01.561Z,22.88
2022-12-15T23:40:30.831Z,18.25
2022-12-15T23:42:59.901Z,18.10
2022-12-15T23:45:30.530Z,17.83
2022-12-15T23:47:59.745Z,20.92
2022-12-15T23:50:29.150Z,17.98
2022-12-15T23:52:58.260Z,22.00
2022-12-15T23:55:27.383Z,18.83
2022-12-15T23:57:57.062Z,25.52
